createdAt,value
2018-02-08T00:00:35.754Z,95.50
2018-02-08T00:03:04.023Z,95.50
2018-02-08T00:05:32.418Z,95.50
2018-02-08T00:08:00.672Z,95.50
2018-02-08T00:10:28.937Z,95.40
2018-02-08T00:12:58.078Z,95.50
2018-02-08T00:15:26.391Z,95.50
2018-02-08T00:17:54.642Z,95.50
2018-02-08T00:20:23.106Z,95.40
2018-02-08T00:22:51.403Z,95.30
2018-02-08T00:25:19.679Z,95.20
2018-02-08T00:27:47.957Z,95.20
2018-02-08T00:30:16.234Z,95.20
2018-02-08T00:32:44.555Z,95.20
2018-02-08T00:35:12.817Z,95.10
2018-02-08T00:37:41.083Z,95.10
2018-02-08T00:40:09.337Z,95.10
2018-02-08T00:42:37.647Z,95.20
2018-02-08T00:45:05.890Z,95.10
2018-02-08T00:47:34.170Z,95.00
2018-02-08T00:50:02.513Z,95.10
2018-02-08T00:52:30.853Z,95.00
2018-02-08T00:54:59.118Z,95.20
2018-02-08T00:57:27.386Z,95.30
2018-02-08T00:59:56.418Z,95.40
2018-02-08T01:02:24.814Z,95.40
2018-02-08T01:04:53.127Z,95.40
2018-02-08T01:07:21.378Z,95.60
2018-02-08T01:09:49.629Z,95.60
2018-02-08T01:12:17.931Z,95.60
2018-02-08T01:14:46.182Z,95.60
2018-02-08T01:17:15.311Z,95.60
2018-02-08T01:19:43.553Z,95.60
2018-02-08T01:22:12.590Z,95.60
2018-02-08T01:24:40.833Z,95.60
2018-02-08T01:27:09.882Z,95.50
2018-02-08T01:29:38.121Z,95.50
2018-02-08T01:32:06.395Z,95.50
2018-02-08T01:34:35.408Z,95.50
2018-02-08T01:37:03.694Z,95.40
2018-02-08T01:39:31.945Z,95.30
2018-02-08T01:42:00.987Z,95.20
2018-02-08T01:44:29.237Z,95.20
2018-02-08T01:46:58.283Z,95.10
2018-02-08T01:49:38.642Z,95.20
2018-02-08T01:52:07.015Z,95.20
2018-02-08T01:54:35.266Z,95.20
2018-02-08T01:57:03.555Z,95.20
2018-02-08T01:59:32.549Z,94.90
2018-02-08T02:02:00.823Z,94.90
2018-02-08T02:04:29.081Z,94.80
2018-02-08T02:06:58.133Z,95.20
2018-02-08T02:09:26.511Z,95.00
2018-02-08T02:11:54.778Z,95.00
2018-02-08T02:14:23.033Z,95.10
2018-02-08T02:16:52.166Z,95.00
2018-02-08T02:19:20.485Z,95.00
2018-02-08T02:21:48.713Z,95.00
2018-02-08T02:24:16.973Z,95.00
2018-02-08T02:26:46.115Z,95.00
2018-02-08T02:29:14.390Z,95.00
2018-02-08T02:31:42.675Z,94.80
2018-02-08T02:34:11.775Z,94.80
2018-02-08T02:36:40.054Z,94.90
2018-02-08T02:39:08.344Z,94.90
2018-02-08T02:41:36.606Z,95.00
2018-02-08T02:44:04.858Z,94.90
2018-02-08T02:46:35.422Z,94.90
2018-02-08T02:49:03.684Z,95.00
2018-02-08T02:51:32.754Z,95.10
2018-02-08T02:54:01.002Z,95.10
2018-02-08T02:56:29.276Z,95.10
2018-02-08T02:58:57.566Z,95.10
2018-02-08T03:01:25.938Z,95.20
2018-02-08T03:03:54.192Z,95.20
2018-02-08T03:06:22.466Z,95.30
2018-02-08T03:08:51.490Z,95.30
2018-02-08T03:11:19.769Z,95.30
2018-02-08T03:13:48.064Z,95.40
2018-02-08T03:16:16.314Z,95.50
2018-02-08T03:18:44.622Z,95.50
2018-02-08T03:21:12.898Z,95.50
2018-02-08T03:23:41.181Z,95.50
2018-02-08T03:26:09.466Z,95.40
2018-02-08T03:28:37.709Z,95.40
2018-02-08T03:31:20.862Z,95.50
2018-02-08T03:33:49.185Z,95.60
2018-02-08T03:36:18.258Z,95.70
2018-02-08T03:38:46.502Z,95.70
2018-02-08T03:41:14.850Z,95.80
2018-02-08T03:43:43.090Z,95.90
2018-02-08T03:46:11.357Z,96.10
2018-02-08T03:48:39.655Z,96.30
2018-02-08T03:51:07.940Z,96.30
2018-02-08T03:53:36.189Z,96.50
2018-02-08T03:56:04.461Z,96.50
2018-02-08T03:58:33.478Z,96.70
2018-02-08T04:01:01.786Z,96.70
2018-02-08T04:03:30.054Z,96.70
2018-02-08T04:05:58.310Z,96.60
2018-02-08T04:08:26.577Z,96.90
2018-02-08T04:10:54.838Z,97.00
2018-02-08T04:13:23.227Z,97.00
2018-02-08T04:15:51.454Z,97.00
2018-02-08T04:18:19.743Z,97.00
2018-02-08T04:20:48.024Z,97.10
2018-02-08T04:23:16.291Z,97.10
2018-02-08T04:25:44.550Z,97.20
2018-02-08T04:28:13.687Z,97.20
2018-02-08T04:30:41.966Z,97.20
2018-02-08T04:33:10.241Z,97.20
2018-02-08T04:35:38.493Z,97.20
2018-02-08T04:38:06.798Z,97.20
2018-02-08T04:40:46.826Z,97.20
2018-02-08T04:43:26.982Z,97.20
2018-02-08T04:48:59.990Z,97.40
2018-02-08T04:51:29.135Z,97.50
2018-02-08T04:53:57.418Z,97.50
2018-02-08T04:56:25.701Z,97.50
2018-02-08T04:58:54.010Z,97.50
2018-02-08T05:01:22.245Z,97.60
2018-02-08T05:03:50.538Z,97.60
2018-02-08T05:06:18.784Z,97.70
2018-02-08T05:08:47.057Z,97.70
2018-02-08T05:11:15.370Z,97.70
2018-02-08T05:13:43.654Z,97.80
2018-02-08T05:16:12.763Z,98.00
2018-02-08T05:18:41.055Z,98.00
2018-02-08T05:21:09.308Z,98.00
2018-02-08T05:23:37.593Z,98.00
2018-02-08T05:26:05.908Z,98.10
2018-02-08T05:28:34.158Z,98.00
2018-02-08T05:31:02.419Z,98.10
2018-02-08T05:33:30.717Z,98.10
2018-02-08T05:35:58.999Z,98.40
2018-02-08T05:38:27.270Z,98.10
2018-02-08T05:40:55.540Z,98.10
2018-02-08T05:43:23.833Z,98.10
2018-02-08T05:45:52.135Z,98.10
2018-02-08T05:48:20.424Z,98.10
2018-02-08T05:50:48.785Z,98.10
2018-02-08T05:53:17.061Z,98.10
2018-02-08T05:55:45.305Z,98.00
2018-02-08T05:58:13.577Z,98.00
2018-02-08T06:00:42.605Z,98.00
2018-02-08T06:03:10.870Z,97.90
2018-02-08T06:05:39.182Z,98.00
2018-02-08T06:08:07.452Z,98.00
2018-02-08T06:10:35.713Z,98.00
2018-02-08T06:13:03.984Z,98.00
2018-02-08T06:15:33.002Z,98.10
2018-02-08T06:18:01.346Z,98.40
2018-02-08T06:20:29.570Z,98.00
2018-02-08T06:22:58.346Z,98.10
2018-02-08T06:25:26.668Z,98.10
2018-02-08T06:27:55.661Z,98.10
2018-02-08T06:30:23.937Z,98.10
2018-02-08T06:32:52.332Z,98.10
2018-02-08T06:35:20.603Z,98.20
2018-02-08T06:37:48.981Z,98.20
2018-02-08T06:40:17.263Z,98.40
2018-02-08T06:42:45.579Z,98.40
2018-02-08T06:45:13.802Z,98.60
2018-02-08T06:47:42.249Z,98.60
2018-02-08T06:50:10.596Z,98.50
2018-02-08T06:52:38.907Z,98.50
2018-02-08T06:55:07.150Z,98.50
2018-02-08T06:57:35.439Z,99.20
2018-02-08T07:00:03.701Z,99.60
2018-02-08T07:02:32.003Z,99.50
2018-02-08T07:05:00.374Z,99.90
2018-02-08T07:07:28.643Z,99.80
2018-02-08T07:09:56.922Z,99.70
2018-02-08T07:12:25.216Z,99.50
2018-02-08T07:14:53.501Z,99.30
2018-02-08T07:17:21.822Z,99.00
2018-02-08T07:19:50.063Z,98.60
2018-02-08T07:22:18.422Z,98.30
2018-02-08T07:24:46.742Z,98.10
2018-02-08T07:27:15.038Z,97.90
2018-02-08T07:29:43.322Z,97.50
2018-02-08T07:32:11.689Z,97.30
2018-02-08T07:34:39.957Z,97.10
2018-02-08T07:37:08.213Z,97.20
2018-02-08T07:39:36.484Z,96.60
2018-02-08T07:42:04.802Z,96.20
2018-02-08T07:44:33.065Z,95.80
2018-02-08T07:47:01.345Z,95.50
2018-02-08T07:49:29.616Z,95.10
2018-02-08T07:51:57.881Z,94.80
2018-02-08T07:54:27.031Z,93.80
2018-02-08T07:56:55.308Z,93.80
2018-02-08T07:59:23.557Z,93.40
2018-02-08T08:01:52.703Z,92.20
2018-02-08T08:04:20.954Z,92.20
2018-02-08T08:06:49.213Z,91.60
2018-02-08T08:09:18.224Z,90.30
2018-02-08T08:11:46.562Z,90.30
2018-02-08T08:14:14.917Z,88.40
2018-02-08T08:16:43.202Z,86.50
2018-02-08T08:19:11.449Z,84.30
2018-02-08T08:21:39.729Z,82.80
2018-02-08T08:24:07.986Z,81.20
2018-02-08T08:26:36.269Z,78.80
2018-02-08T08:29:04.654Z,77.10
2018-02-08T08:31:32.881Z,75.70
2018-02-08T08:34:01.178Z,73.30
2018-02-08T08:36:29.481Z,71.60
2018-02-08T08:38:57.758Z,69.70
2018-02-08T08:41:25.966Z,68.30
2018-02-08T08:43:54.666Z,66.60
2018-02-08T08:46:23.678Z,63.90
2018-02-08T08:48:51.985Z,63.90
2018-02-08T08:51:20.238Z,62.70
2018-02-08T08:53:49.457Z,61.10
2018-02-08T08:56:17.723Z,60.10
2018-02-08T08:58:45.993Z,58.70
2018-02-08T09:01:14.299Z,56.70
2018-02-08T09:03:42.578Z,56.90
2018-02-08T09:06:10.881Z,57.20
2018-02-08T09:08:39.145Z,57.30
2018-02-08T09:11:07.453Z,56.80
2018-02-08T09:13:35.694Z,56.70
2018-02-08T09:16:03.946Z,57.20
2018-02-08T09:18:32.257Z,57.40
2018-02-08T09:21:00.511Z,58.00
2018-02-08T09:23:28.760Z,58.40
2018-02-08T09:25:57.026Z,58.40
2018-02-08T09:28:25.382Z,58.70
2018-02-08T09:30:53.650Z,58.90
2018-02-08T09:33:21.967Z,58.80
2018-02-08T09:35:50.230Z,58.20
2018-02-08T09:38:18.495Z,57.40
2018-02-08T09:40:46.777Z,55.50
2018-02-08T09:43:15.031Z,55.40
2018-02-08T09:45:43.339Z,54.80
2018-02-08T09:48:11.631Z,53.20
2018-02-08T09:50:39.900Z,52.30
2018-02-08T09:53:08.186Z,52.10
2018-02-08T09:55:36.575Z,52.10
2018-02-08T09:58:04.851Z,51.40
2018-02-08T10:00:33.119Z,51.80
2018-02-08T10:03:01.413Z,51.40
2018-02-08T10:05:29.792Z,51.10
2018-02-08T10:07:58.078Z,51.20
2018-02-08T10:10:26.983Z,51.30
2018-02-08T10:12:56.079Z,52.60
2018-02-08T10:15:24.350Z,52.60
2018-02-08T10:17:52.633Z,52.30
2018-02-08T10:20:20.894Z,52.60
2018-02-08T10:22:49.221Z,53.00
2018-02-08T10:25:17.469Z,53.10
2018-02-08T10:27:45.857Z,53.60
2018-02-08T10:30:14.171Z,54.00
2018-02-08T10:32:42.418Z,55.60
2018-02-08T10:35:10.737Z,56.60
2018-02-08T10:37:39.073Z,57.30
2018-02-08T10:40:07.361Z,58.30
2018-02-08T10:42:35.638Z,58.90
2018-02-08T10:45:03.919Z,59.50
2018-02-08T10:47:32.209Z,59.90
2018-02-08T10:50:00.497Z,60.00
2018-02-08T10:52:28.778Z,60.30
2018-02-08T10:54:57.086Z,60.50
2018-02-08T10:57:25.334Z,61.20
2018-02-08T10:59:53.618Z,61.30
2018-02-08T11:02:21.877Z,61.70
2018-02-08T11:04:51.002Z,62.30
2018-02-08T11:07:19.278Z,62.30
2018-02-08T11:09:48.545Z,63.10
2018-02-08T11:12:17.577Z,63.60
2018-02-08T11:14:45.858Z,63.60
2018-02-08T11:17:14.172Z,63.60
2018-02-08T11:19:42.477Z,65.30
2018-02-08T11:22:10.699Z,64.40
2018-02-08T11:24:38.957Z,64.70
2018-02-08T11:27:07.299Z,64.90
2018-02-08T11:29:35.533Z,64.80
2018-02-08T11:32:03.832Z,64.40
2018-02-08T11:34:32.149Z,65.10
2018-02-08T11:37:00.409Z,65.60
2018-02-08T11:39:28.682Z,65.70
2018-02-08T11:41:56.925Z,65.10
2018-02-08T11:44:25.193Z,64.60
2018-02-08T11:46:53.524Z,64.30
2018-02-08T11:49:21.890Z,63.40
2018-02-08T11:51:50.313Z,62.90
2018-02-08T11:54:18.657Z,63.10
2018-02-08T11:56:46.951Z,62.30
2018-02-08T11:59:15.198Z,62.00
2018-02-08T12:01:44.103Z,62.40
2018-02-08T12:04:12.537Z,62.20
2018-02-08T12:06:41.651Z,62.50
2018-02-08T12:09:09.892Z,62.00
2018-02-08T12:11:38.178Z,62.30
2018-02-08T12:14:06.421Z,63.00
2018-02-08T12:16:34.712Z,63.40
2018-02-08T12:19:02.962Z,64.40
2018-02-08T12:21:32.039Z,65.80
2018-02-08T12:24:00.285Z,65.70
2018-02-08T12:26:28.552Z,66.20
2018-02-08T12:28:56.801Z,65.70
2018-02-08T12:31:25.954Z,66.90
2018-02-08T12:33:54.281Z,66.90
2018-02-08T12:36:23.334Z,67.20
2018-02-08T12:38:51.642Z,67.20
2018-02-08T12:41:19.882Z,68.10
2018-02-08T12:43:48.160Z,68.00
2018-02-08T12:46:16.447Z,68.60
2018-02-08T12:48:44.689Z,69.00
2018-02-08T12:51:13.831Z,69.70
2018-02-08T12:53:42.111Z,69.70
2018-02-08T12:56:10.398Z,70.50
2018-02-08T12:58:38.664Z,72.00
2018-02-08T13:01:06.949Z,72.70
2018-02-08T13:03:35.231Z,73.80
2018-02-08T13:06:03.523Z,74.50
2018-02-08T13:08:31.782Z,74.10
2018-02-08T13:11:00.040Z,73.70
2018-02-08T13:13:29.079Z,74.70
2018-02-08T13:15:57.339Z,73.90
2018-02-08T13:18:25.598Z,73.70
2018-02-08T13:20:54.738Z,74.30
2018-02-08T13:23:23.013Z,74.60
2018-02-08T13:25:51.328Z,75.90
2018-02-08T13:28:19.674Z,77.30
2018-02-08T13:30:47.932Z,78.20
2018-02-08T13:33:16.194Z,77.50
2018-02-08T13:35:45.211Z,79.10
2018-02-08T13:38:13.462Z,79.10
2018-02-08T13:40:44.184Z,79.80
2018-02-08T13:43:12.428Z,79.80
2018-02-08T13:45:40.666Z,80.60
2018-02-08T13:48:12.264Z,80.80
2018-02-08T13:51:00.450Z,80.80
2018-02-08T13:53:34.520Z,81.30
2018-02-08T13:59:14.094Z,82.90
2018-02-08T14:01:48.079Z,84.90
2018-02-08T14:04:17.106Z,86.60
2018-02-08T14:06:45.400Z,86.60
2018-02-08T14:09:13.670Z,86.40
2018-02-08T14:11:41.957Z,86.40
2018-02-08T14:14:10.317Z,86.50
2018-02-08T14:16:38.642Z,86.50
2018-02-08T14:19:07.007Z,87.30
2018-02-08T14:21:35.262Z,87.70
2018-02-08T14:24:03.517Z,88.40
2018-02-08T14:26:32.530Z,89.90
2018-02-08T14:29:00.866Z,89.90
2018-02-08T14:31:29.217Z,90.00
2018-02-08T14:33:57.547Z,90.30
2018-02-08T14:36:25.807Z,90.90
2018-02-08T14:38:54.081Z,91.20
2018-02-08T14:41:22.463Z,91.30
2018-02-08T14:43:50.721Z,91.40
2018-02-08T14:46:19.014Z,91.10
2018-02-08T14:48:47.322Z,91.20
2018-02-08T14:51:15.561Z,91.40
2018-02-08T14:53:43.809Z,91.50
2018-02-08T14:56:12.078Z,91.50
2018-02-08T14:58:40.443Z,91.60
2018-02-08T15:01:08.718Z,91.70
2018-02-08T15:03:36.989Z,91.80
2018-02-08T15:06:05.263Z,91.80
2018-02-08T15:08:33.538Z,91.80
2018-02-08T15:11:01.802Z,91.90
2018-02-08T15:13:30.052Z,91.60
2018-02-08T15:15:58.383Z,91.70
2018-02-08T15:18:26.637Z,91.80
2018-02-08T15:20:54.922Z,92.00
2018-02-08T15:23:23.161Z,92.00
2018-02-08T15:25:51.410Z,91.80
2018-02-08T15:28:19.682Z,91.90
2018-02-08T15:30:47.964Z,92.30
2018-02-08T15:33:16.248Z,92.40
2018-02-08T15:35:44.495Z,92.60
2018-02-08T15:38:13.694Z,92.60
2018-02-08T15:40:42.767Z,92.80
2018-02-08T15:43:11.011Z,92.80
2018-02-08T15:45:40.085Z,93.00
2018-02-08T15:48:08.395Z,93.20
2018-02-08T15:50:36.674Z,93.30
2018-02-08T15:53:04.938Z,93.60
2018-02-08T15:55:33.182Z,94.00
2018-02-08T15:58:02.230Z,94.00
2018-02-08T16:00:30.506Z,94.00
2018-02-08T16:02:58.781Z,94.30
2018-02-08T16:05:27.081Z,94.50
2018-02-08T16:07:55.365Z,94.60
2018-02-08T16:10:24.364Z,94.80
2018-02-08T16:12:52.624Z,94.70
2018-02-08T16:15:20.899Z,94.90
2018-02-08T16:17:49.185Z,95.00
2018-02-08T16:20:17.462Z,95.00
2018-02-08T16:22:46.502Z,95.20
2018-02-08T16:25:14.852Z,95.40
2018-02-08T16:27:43.110Z,95.40
2018-02-08T16:30:11.433Z,95.30
2018-02-08T16:32:39.710Z,95.40
2018-02-08T16:35:08.084Z,95.70
2018-02-08T16:37:36.375Z,95.70
2018-02-08T16:40:04.745Z,95.80
2018-02-08T16:42:33.030Z,95.80
2018-02-08T16:45:01.297Z,95.70
2018-02-08T16:47:29.563Z,95.70
2018-02-08T16:49:57.886Z,95.80
2018-02-08T16:52:26.693Z,95.90
2018-02-08T16:54:54.970Z,96.00
2018-02-08T16:57:23.225Z,96.10
2018-02-08T16:59:51.505Z,96.20
2018-02-08T17:02:19.757Z,96.30
2018-02-08T17:04:48.038Z,96.40
2018-02-08T17:07:16.306Z,96.40
2018-02-08T17:09:44.559Z,96.10
2018-02-08T17:12:13.613Z,96.00
2018-02-08T17:14:41.867Z,95.90
2018-02-08T17:17:10.142Z,95.90
2018-02-08T17:19:38.397Z,95.90
2018-02-08T17:22:07.455Z,96.20
2018-02-08T17:24:35.972Z,96.20
2018-02-08T17:27:04.321Z,96.70
2018-02-08T17:29:32.569Z,96.50
2018-02-08T17:32:00.843Z,96.30
2018-02-08T17:34:29.866Z,96.70
2018-02-08T17:36:58.147Z,96.60
2018-02-08T17:39:26.394Z,96.70
2018-02-08T17:41:55.538Z,96.90
2018-02-08T17:44:23.824Z,96.90
2018-02-08T17:46:52.086Z,96.90
2018-02-08T17:49:20.370Z,97.00
2018-02-08T17:51:48.638Z,97.10
2018-02-08T17:54:16.906Z,97.10
2018-02-08T17:56:45.223Z,97.00
2018-02-08T17:59:13.503Z,97.40
2018-02-08T18:01:41.761Z,97.50
2018-02-08T18:04:10.057Z,97.40
2018-02-08T18:06:38.338Z,97.40
2018-02-08T18:09:06.614Z,97.30
2018-02-08T18:11:34.938Z,97.30
2018-02-08T18:14:03.307Z,97.80
2018-02-08T18:16:31.561Z,98.20
2018-02-08T18:18:59.955Z,97.90
2018-02-08T18:21:29.137Z,97.50
2018-02-08T18:23:57.418Z,97.00
2018-02-08T18:26:25.690Z,97.10
2018-02-08T18:28:53.972Z,97.70
2018-02-08T18:31:22.289Z,97.60
2018-02-08T18:33:50.673Z,97.60
2018-02-08T18:36:19.033Z,97.30
2018-02-08T18:38:47.318Z,97.20
2018-02-08T18:41:15.580Z,96.70
2018-02-08T18:43:43.934Z,96.30
2018-02-08T18:46:12.162Z,96.20
2018-02-08T18:48:40.415Z,96.10
2018-02-08T18:51:08.689Z,96.00
2018-02-08T18:53:37.004Z,95.90
2018-02-08T18:56:05.273Z,95.80
2018-02-08T18:58:34.599Z,95.70
2018-02-08T19:01:02.849Z,95.70
2018-02-08T19:03:31.152Z,95.90
2018-02-08T19:06:00.908Z,95.70
2018-02-08T19:08:29.135Z,95.60
2018-02-08T19:10:57.438Z,95.80
2018-02-08T19:13:25.818Z,95.80
2018-02-08T19:15:54.215Z,95.90
2018-02-08T19:18:23.275Z,96.20
2018-02-08T19:20:51.571Z,96.20
2018-02-08T19:23:19.850Z,96.30
2018-02-08T19:25:48.129Z,96.30
2018-02-08T19:28:16.415Z,96.30
2018-02-08T19:30:44.676Z,96.40
2018-02-08T19:33:12.939Z,96.40
2018-02-08T19:35:41.287Z,96.50
2018-02-08T19:38:09.526Z,96.60
2018-02-08T19:40:37.895Z,96.70
2018-02-08T19:43:06.333Z,96.90
2018-02-08T19:45:35.800Z,97.00
2018-02-08T19:48:04.153Z,97.00
2018-02-08T19:50:32.410Z,97.00
2018-02-08T19:53:00.681Z,97.10
2018-02-08T19:55:28.938Z,97.50
2018-02-08T19:57:57.213Z,97.30
2018-02-08T20:00:25.481Z,97.30
2018-02-08T20:02:53.784Z,97.60
2018-02-08T20:05:22.040Z,97.70
2018-02-08T20:07:50.325Z,97.80
2018-02-08T20:10:18.703Z,97.90
2018-02-08T20:12:46.988Z,98.00
2018-02-08T20:18:08.834Z,98.10
2018-02-08T20:20:37.089Z,98.10
2018-02-08T20:23:05.410Z,98.20
2018-02-08T20:25:34.480Z,98.30
2018-02-08T20:28:02.789Z,98.30
2018-02-08T20:30:31.050Z,98.40
2018-02-08T20:32:59.365Z,98.40
2018-02-08T20:35:27.630Z,98.30
2018-02-08T20:37:56.316Z,98.30
2018-02-08T20:40:28.243Z,98.10
2018-02-08T20:43:03.093Z,98.10
2018-02-08T20:45:31.365Z,98.10
2018-02-08T20:47:59.637Z,98.10
2018-02-08T20:50:28.786Z,97.90
2018-02-08T20:52:57.070Z,97.90
2018-02-08T20:55:25.349Z,97.80
2018-02-08T20:57:53.698Z,97.70
2018-02-08T21:00:21.976Z,97.70
2018-02-08T21:02:50.282Z,97.50
2018-02-08T21:05:18.558Z,97.70
2018-02-08T21:07:46.856Z,97.60
2018-02-08T21:10:15.130Z,97.60
2018-02-08T21:12:43.390Z,97.50
2018-02-08T21:15:11.731Z,97.40
2018-02-08T21:17:39.960Z,97.20
2018-02-08T21:20:08.954Z,97.20
2018-02-08T21:22:37.229Z,97.10
2018-02-08T21:25:06.249Z,97.30
2018-02-08T21:27:34.508Z,97.30
2018-02-08T21:30:02.778Z,97.30
2018-02-08T21:32:31.034Z,97.40
2018-02-08T21:34:59.306Z,97.50
2018-02-08T21:37:27.566Z,97.30
2018-02-08T21:39:55.994Z,97.40
2018-02-08T21:42:24.331Z,97.40
2018-02-08T21:44:52.622Z,97.50
2018-02-08T21:47:20.977Z,97.60
2018-02-08T21:49:49.244Z,97.60
2018-02-08T21:52:17.508Z,97.70
2018-02-08T21:54:45.786Z,97.80
2018-02-08T21:57:14.107Z,97.90
2018-02-08T21:59:42.445Z,98.00
2018-02-08T22:02:11.509Z,98.40
2018-02-08T22:04:39.767Z,98.40
2018-02-08T22:07:08.137Z,98.50
2018-02-08T22:09:36.396Z,98.50
2018-02-08T22:12:04.714Z,98.60
2018-02-08T22:14:32.977Z,98.60
2018-02-08T22:17:01.277Z,98.70
2018-02-08T22:19:29.561Z,98.60
2018-02-08T22:21:57.886Z,98.50
2018-02-08T22:24:26.496Z,98.40
2018-02-08T22:26:54.849Z,98.30
2018-02-08T22:29:23.119Z,98.40
2018-02-08T22:31:52.018Z,98.40
2018-02-08T22:34:20.470Z,98.50
2018-02-08T22:36:48.795Z,98.60
2018-02-08T22:39:17.062Z,98.90
2018-02-08T22:41:46.845Z,99.20
2018-02-08T22:44:15.134Z,99.20
2018-02-08T22:46:43.410Z,99.20
2018-02-08T22:49:11.689Z,99.00
2018-02-08T22:51:39.971Z,99.10
2018-02-08T22:54:08.247Z,99.10
2018-02-08T22:56:36.506Z,99.00
2018-02-08T22:59:04.842Z,99.00
2018-02-08T23:01:33.076Z,98.80
2018-02-08T23:04:01.351Z,98.50
2018-02-08T23:06:29.658Z,98.40
2018-02-08T23:08:57.934Z,98.40
2018-02-08T23:11:26.233Z,98.30
2018-02-08T23:13:54.523Z,98.20
2018-02-08T23:16:22.785Z,98.00
2018-02-08T23:18:51.065Z,98.10
2018-02-08T23:21:19.325Z,98.10
2018-02-08T23:23:47.626Z,98.30
2018-02-08T23:26:15.903Z,98.40
2018-02-08T23:28:44.169Z,98.50
2018-02-08T23:31:12.442Z,98.60
2018-02-08T23:33:40.715Z,98.80
2018-02-08T23:36:09.023Z,98.90
2018-02-08T23:38:37.337Z,99.10
2018-02-08T23:41:05.582Z,99.30
2018-02-08T23:43:33.842Z,99.50
2018-02-08T23:46:02.118Z,99.60
2018-02-08T23:48:30.377Z,99.60
2018-02-08T23:50:58.689Z,99.70
2018-02-08T23:53:26.981Z,99.70
2018-02-08T23:55:55.263Z,99.70
2018-02-08T23:58:23.543Z,99.70
